Winchester, Connecticut
Current Conditions -  °F | °C
As of 10:26 AM on Wednesday 26 Nov 2014 (Local Time) from KBDL Reporting Station
Light Snow Light Snow  
Wind Chill: 29°   Ceiling: 700
Heat Index: 35°   Visibility: 1mi
Dew Point: 31°   Wind: 7mph
Humidity: 85%   Direction: 20°NNE
Pressure: 30.14"   Gusts: NA
Location:  41.9462°N, 73.0763°W
Report Text: KBDL 261526Z 02006KT 1SM R06/6000VP6000FT -SN BR BKN007 OVC011 02/M01 A3014 RMK AO2 RAE21 PRESFR P0006 T00171006 $
Loading
Personal Weather Stations






























Interactive Weather Map New forecast layout! Learn more

10-Day Weather Forecast

Advertisements
Track Severe Weather on mobile